Time;durP1;ratioP1;P1;durP2;ratioP2;P2;SDS_P1;SDS_P2;PMS_P1;PMS_P2;Temp;Humidity;BMP_temperature;BMP_pressure;BME280_temperature;BME280_humidity;BME280_pressure;Samples;Min_cycle;Max_cycle;Signal;HPM_P1;HPM_P2
2022/08/11 00:01:51;;;;;;;4.93;2.50;;;19.30;95.40;;;;;;5063613;22;20226;-83
2022/08/11 00:04:21;;;;;;;6.43;2.80;;;19.30;95.70;;;;;;5014450;28;20187;-83
2022/08/11 00:06:47;;;;;;;5.57;2.60;;;19.30;95.60;;;;;;5012232;28;20479;-83
2022/08/11 00:09:19;;;;;;;7.07;2.60;;;19.20;95.90;;;;;;5029219;28;20166;-82
2022/08/11 00:11:51;;;;;;;3.17;2.50;;;19.20;95.90;;;;;;5028836;28;20185;-83
2022/08/11 00:14:26;;;;;;;4.03;2.70;;;19.10;96.20;;;;;;5011317;28;20560;-83
2022/08/11 00:17:04;;;;;;;7.20;2.50;;;19.10;96.30;;;;;;5073235;22;20232;-77
2022/08/11 00:19:33;;;;;;;2.80;2.37;;;19.10;96.40;;;;;;5034889;28;20232;-78
2022/08/11 00:21:59;;;;;;;5.40;2.87;;;19.00;96.80;;;;;;5034695;28;20637;-77
2022/08/11 00:24:35;;;;;;;4.53;2.50;;;19.10;96.30;;;;;;5034867;28;20236;-78
2022/08/11 00:27:01;;;;;;;3.77;2.70;;;19.00;96.40;;;;;;5034618;28;20165;-78
2022/08/11 00:29:28;;;;;;;4.07;3.03;;;18.60;97.60;;;;;;5034718;28;20173;-77
2022/08/11 00:31:56;;;;;;;3.10;2.70;;;18.70;97.60;;;;;;5034617;28;20208;-77
2022/08/11 00:34:32;;;;;;;4.17;2.93;;;18.60;97.70;;;;;;5052473;28;20319;-77
2022/08/11 00:37:05;;;;;;;5.57;2.70;;;18.70;97.50;;;;;;5035142;28;20541;-77
2022/08/11 00:39:33;;;;;;;3.73;2.70;;;18.80;97.10;;;;;;5034966;28;20204;-77
2022/08/11 00:42:14;;;;;;;7.70;2.60;;;18.70;98.00;;;;;;5035192;28;20169;-77
2022/08/11 00:45:17;;;;;;;5.50;2.80;;;18.60;98.10;;;;;;5035426;28;20193;-77
2022/08/11 00:47:58;;;;;;;4.77;2.40;;;18.70;97.60;;;;;;5035034;28;20253;-77
2022/08/11 00:50:51;;;;;;;5.07;3.00;;;18.70;97.80;;;;;;5035710;28;20549;-76
2022/08/11 00:53:37;;;;;;;3.53;2.90;;;18.40;98.70;;;;;;5034914;28;20203;-77
2022/08/11 00:56:15;;;;;;;6.17;3.00;;;18.30;98.70;;;;;;5034655;28;20200;-76
2022/08/11 00:58:59;;;;;;;2.97;2.67;;;18.40;98.70;;;;;;5034959;28;20200;-76
2022/08/11 01:01:37;;;;;;;9.53;3.23;;;18.20;99.30;;;;;;5034553;28;20572;-77
2022/08/11 01:04:41;;;;;;;5.47;2.80;;;18.30;99.10;;;;;;5034185;28;20644;-78
2022/08/11 01:07:30;;;;;;;6.17;3.30;;;18.30;98.90;;;;;;5034482;28;20169;-76
2022/08/11 01:10:20;;;;;;;5.80;2.67;;;18.30;99.30;;;;;;5034700;28;20687;-79
2022/08/11 01:13:09;;;;;;;4.30;2.23;;;18.00;99.90;;;;;;5034377;28;20185;-77
2022/08/11 01:16:02;;;;;;;6.43;2.83;;;18.10;99.30;;;;;;4989915;28;20223;-78
2022/08/11 01:18:57;;;;;;;3.87;2.63;;;17.90;99.40;;;;;;5034711;28;20742;-77
2022/08/11 01:21:41;;;;;;;3.50;2.70;;;17.80;99.40;;;;;;5034815;28;20199;-79
2022/08/11 01:24:26;;;;;;;5.53;2.50;;;17.90;99.00;;;;;;5034835;28;20173;-76
2022/08/11 01:27:29;;;;;;;3.83;2.80;;;18.00;98.60;;;;;;5034307;28;20180;-78
2022/08/11 01:30:33;;;;;;;6.33;3.13;;;18.10;98.30;;;;;;5034945;28;20223;-78
2022/08/11 01:33:23;;;;;;;6.33;3.07;;;18.10;98.90;;;;;;5034725;28;20200;-79
2022/08/11 01:35:55;;;;;;;5.50;3.00;;;18.20;98.90;;;;;;5034886;28;20193;-80
2022/08/11 01:38:26;;;;;;;5.03;2.73;;;17.80;99.60;;;;;;5034786;28;20351;-77
2022/08/11 01:41:11;;;;;;;4.80;3.10;;;17.70;99.90;;;;;;5034530;28;20212;-78
2022/08/11 01:47:01;;;;;;;4.27;2.60;;;17.80;99.30;;;;;;5052886;28;20175;-78
2022/08/11 01:49:36;;;;;;;5.63;2.77;;;17.80;99.50;;;;;;5035190;28;20177;-78
2022/08/11 01:52:27;;;;;;;6.53;2.83;;;17.50;99.90;;;;;;5034608;28;20176;-80
2022/08/11 01:55:23;;;;;;;5.67;2.87;;;17.50;99.80;;;;;;5035392;28;20681;-78
2022/08/11 01:57:55;;;;;;;5.37;2.80;;;17.40;99.90;;;;;;5034526;28;20228;-76
2022/08/11 02:00:27;;;;;;;6.60;3.17;;;17.50;99.70;;;;;;5035232;28;20530;-79
2022/08/11 02:03:07;;;;;;;6.23;2.90;;;17.70;99.20;;;;;;5033536;28;20174;-78
2022/08/11 02:05:59;;;;;;;7.10;2.80;;;17.70;99.30;;;;;;5034485;28;20247;-79
2022/08/11 02:08:48;;;;;;;3.40;2.90;;;17.60;99.20;;;;;;5034207;28;20173;-76
2022/08/11 02:11:30;;;;;;;6.30;2.87;;;17.20;99.90;;;;;;5034507;28;20528;-79
2022/08/11 02:13:59;;;;;;;10.13;3.20;;;17.30;99.90;;;;;;5033892;28;20264;-77
2022/08/11 02:16:45;;;;;;;4.50;2.90;;;17.40;99.90;;;;;;5051850;28;20202;-76
2022/08/11 02:25:19;;;;;;;4.77;3.10;;;17.50;99.80;;;;;;5055168;28;20223;-79
2022/08/11 02:27:54;;;;;;;4.80;3.20;;;17.20;99.90;;;;;;5037840;28;20207;-79
2022/08/11 02:30:24;;;;;;;6.30;3.00;;;17.50;99.90;;;;;;5037945;28;20173;-77
2022/08/11 02:36:05;;;;;;;5.03;3.50;;;17.10;99.90;;;;;;5055653;28;20339;-78
2022/08/11 02:38:50;;;;;;;4.13;3.10;;;17.00;99.90;;;;;;5037593;28;20196;-77
2022/08/11 02:45:00;;;;;;;7.17;3.70;;;17.20;99.90;;;;;;5055169;28;20586;-76
2022/08/11 02:50:41;;;;;;;6.63;3.50;;;17.20;99.90;;;;;;5033921;28;20236;-80
2022/08/11 02:53:21;;;;;;;6.10;3.53;;;17.30;99.90;;;;;;5036884;28;20173;-79
2022/08/11 02:56:07;;;;;;;8.53;3.57;;;17.20;99.90;;;;;;5036573;28;20251;-77
2022/08/11 03:02:05;;;;;;;4.03;3.40;;;16.90;99.90;;;;;;4979890;28;20220;-78
2022/08/11 03:04:57;;;;;;;5.23;3.50;;;17.00;99.90;;;;;;5055167;28;20248;-78
2022/08/11 03:07:27;;;;;;;5.83;3.77;;;16.70;99.90;;;;;;5037417;28;20185;-78
2022/08/11 03:10:22;;;;;;;4.67;3.40;;;16.70;99.90;;;;;;5037698;28;20165;-76
2022/08/11 03:19:23;;;;;;;6.87;3.70;;;16.90;99.90;;;;;;5055215;28;20203;-79
2022/08/11 03:22:02;;;;;;;5.37;3.60;;;16.90;99.90;;;;;;5036198;28;20184;-76
2022/08/11 03:24:39;;;;;;;5.00;3.10;;;16.70;99.90;;;;;;5036584;28;20167;-79
2022/08/11 03:27:20;;;;;;;6.60;3.83;;;16.90;99.90;;;;;;5036744;28;20172;-77
2022/08/11 03:30:06;;;;;;;4.40;3.67;;;16.80;99.90;;;;;;5035709;28;20537;-77
2022/08/11 03:34:00;;;;;;;5.57;3.60;;;16.90;99.90;;;;;;5035793;28;20640;-77
2022/08/11 03:35:38;;;;;;;6.23;3.40;;;16.80;99.90;;;;;;5053876;28;20760;-77
2022/08/11 03:38:11;;;;;;;5.17;3.93;;;16.60;99.90;;;;;;5036613;28;20200;-77
2022/08/11 03:43:44;;;;;;;5.73;4.00;;;16.60;99.90;;;;;;5054381;28;20196;-78
2022/08/11 03:46:20;;;;;;;4.73;3.67;;;16.40;99.90;;;;;;5036271;28;20193;-79
2022/08/11 03:48:59;;;;;;;10.03;4.13;;;16.30;99.90;;;;;;5035855;28;20173;-76
2022/08/11 03:51:24;;;;;;;7.67;3.60;;;16.60;99.90;;;;;;5036424;28;20169;-78
2022/08/11 03:54:28;;;;;;;4.17;3.70;;;16.70;99.90;;;;;;5037462;28;20227;-80
2022/08/11 03:57:24;;;;;;;9.13;4.23;;;16.70;99.90;;;;;;5053482;28;20255;-78
2022/08/11 04:00:02;;;;;;;5.90;3.80;;;16.50;99.90;;;;;;5036303;28;20540;-78
2022/08/11 04:02:49;;;;;;;5.97;4.30;;;16.50;99.90;;;;;;5035774;28;20199;-77
2022/08/11 04:05:30;;;;;;;7.77;4.20;;;16.50;99.90;;;;;;5036885;28;20188;-78
2022/08/11 04:08:29;;;;;;;8.83;4.13;;;16.40;99.90;;;;;;5037247;28;20178;-78
2022/08/11 04:11:10;;;;;;;6.43;4.00;;;16.50;99.90;;;;;;5041810;28;20193;-78
2022/08/11 04:13:41;;;;;;;5.83;4.10;;;16.40;99.90;;;;;;5041872;28;20189;-78
2022/08/11 04:16:40;;;;;;;5.33;4.20;;;16.40;99.90;;;;;;5036922;28;20761;-80
2022/08/11 04:19:44;;;;;;;5.67;3.90;;;16.30;99.90;;;;;;5036006;28;20193;-76
2022/08/11 04:22:42;;;;;;;4.67;3.93;;;16.40;99.90;;;;;;5034952;28;20628;-78
2022/08/11 04:25:24;;;;;;;7.63;3.97;;;16.60;99.90;;;;;;5035139;28;20197;-76
2022/08/11 04:28:23;;;;;;;7.13;4.07;;;16.50;99.90;;;;;;5035918;28;20173;-78
2022/08/11 04:31:16;;;;;;;8.83;3.70;;;16.40;99.90;;;;;;5035417;28;20197;-78
2022/08/11 04:34:15;;;;;;;8.97;4.23;;;16.40;99.90;;;;;;5036037;28;20174;-78
2022/08/11 04:40:05;;;;;;;7.70;3.70;;;16.10;99.90;;;;;;5052864;28;20246;-78
2022/08/11 04:43:21;;;;;;;7.43;4.40;;;16.20;99.90;;;;;;5034037;28;20657;-77
2022/08/11 04:46:05;;;;;;;7.30;3.93;;;16.50;99.90;;;;;;5035132;28;20201;-78
2022/08/11 05:03:45;;;;;;;5.63;3.43;;;16.70;99.90;;;;;;5052432;28;20225;-76
2022/08/11 05:06:54;;;;;;;6.57;4.47;;;16.90;99.90;;;;;;5034888;28;20197;-75
2022/08/11 05:09:57;;;;;;;8.63;4.20;;;17.00;99.90;;;;;;5052125;28;20185;-75
2022/08/11 05:12:50;;;;;;;19.20;4.17;;;17.40;99.90;;;;;;5034997;28;20169;-78
2022/08/11 05:35:46;;;;;;;11.60;4.43;;;17.90;99.90;;;;;;5052342;28;20204;-76
2022/08/11 05:57:56;;;;;;;9.07;3.50;;;18.90;99.90;;;;;;5056295;28;20250;-77
2022/08/11 06:00:23;;;;;;;7.00;3.60;;;19.00;99.90;;;;;;5051106;22;20150;-85
2022/08/11 06:03:02;;;;;;;7.70;3.00;;;19.30;99.90;;;;;;5023278;28;20181;-85
2022/08/11 06:05:38;;;;;;;14.27;3.90;;;19.40;99.90;;;;;;5049899;28;20186;-85
2022/08/11 06:08:08;;;;;;;14.32;4.07;;;19.60;99.90;;;;;;5053300;28;20173;-85
2022/08/11 06:10:37;;;;;;;7.20;3.78;;;20.00;99.90;;;;;;5052893;28;20207;-85
2022/08/11 06:13:05;;;;;;;10.05;3.20;;;20.60;99.60;;;;;;5051970;28;20173;-85
2022/08/11 06:15:33;;;;;;;10.88;3.50;;;21.10;99.60;;;;;;5044931;23;20221;-82
2022/08/11 06:18:01;;;;;;;6.40;2.67;;;21.50;98.00;;;;;;5043373;28;20235;-82
2022/08/11 06:20:36;;;;;;;14.23;3.05;;;21.80;96.80;;;;;;5042386;28;20170;-82
2022/08/11 06:23:04;;;;;;;7.88;2.83;;;21.70;96.40;;;;;;5043200;28;20210;-82
2022/08/11 06:25:32;;;;;;;5.63;2.72;;;22.30;96.00;;;;;;5041848;28;20204;-82
2022/08/11 06:27:59;;;;;;;11.80;3.08;;;22.60;95.50;;;;;;5047002;28;20660;-82
2022/08/11 06:30:45;;;;;;;9.90;3.00;;;22.80;94.80;;;;;;5048895;28;20189;-81
2022/08/11 06:33:14;;;;;;;13.35;2.80;;;22.80;94.80;;;;;;5047559;28;20174;-81
2022/08/11 06:35:58;;;;;;;5.80;2.65;;;23.30;94.30;;;;;;5049902;28;20224;-82
2022/08/11 06:39:05;;;;;;;6.63;2.40;;;23.80;93.20;;;;;;5050966;28;20216;-83
2022/08/11 06:41:44;;;;;;;6.03;2.53;;;23.90;92.50;;;;;;5050994;28;20172;-82
2022/08/11 06:44:12;;;;;;;5.65;2.17;;;24.30;92.60;;;;;;5050574;28;20157;-82
2022/08/11 06:46:45;;;;;;;3.00;2.28;;;24.50;91.90;;;;;;5046414;28;20185;-83
2022/08/11 06:52:18;;;;;;;4.55;2.35;;;24.60;90.90;;;;;;5063257;28;20188;-81
2022/08/11 06:54:56;;;;;;;3.92;2.17;;;24.60;90.30;;;;;;5047059;28;20197;-81
2022/08/11 07:03:00;;;;;;;3.50;2.20;;;25.70;88.80;;;;;;5064103;28;20208;-80
2022/08/11 07:05:47;;;;;;;4.55;2.10;;;25.40;87.40;;;;;;5044162;28;20189;-80
2022/08/11 07:17:20;;;;;;;4.80;2.10;;;26.60;83.30;;;;;;5058869;28;20219;-81
2022/08/11 07:31:13;;;;;;;8.13;1.85;;;27.20;79.60;;;;;;5057916;28;20176;-82
2022/08/11 07:33:48;;;;;;;4.50;1.90;;;27.70;79.30;;;;;;5038260;28;20173;-82
2022/08/11 07:36:16;;;;;;;6.40;1.80;;;27.50;80.90;;;;;;5039982;28;20298;-81
2022/08/11 07:38:53;;;;;;;6.03;1.77;;;28.00;79.40;;;;;;5038582;28;20197;-81
2022/08/11 07:41:22;;;;;;;7.03;1.70;;;28.10;80.30;;;;;;5039105;28;20545;-81
2022/08/11 07:43:52;;;;;;;1.73;1.50;;;28.20;78.10;;;;;;5039118;28;20249;-81
2022/08/11 07:54:39;;;;;;;7.63;1.90;;;28.60;78.30;;;;;;5056803;28;20568;-81
2022/08/11 08:19:17;;;;;;;3.08;1.90;;;29.80;72.70;;;;;;5056219;28;20235;-82
2022/08/11 08:21:44;;;;;;;4.38;1.77;;;30.40;71.90;;;;;;5036905;28;20169;-81
2022/08/11 08:24:11;;;;;;;4.78;1.90;;;30.00;71.40;;;;;;5040168;28;20173;-82
2022/08/11 08:32:09;;;;;;;3.10;2.00;;;30.70;71.90;;;;;;5056197;28;20796;-83
2022/08/11 08:34:38;;;;;;;2.60;1.80;;;29.90;70.40;;;;;;5038094;28;20231;-83
2022/08/11 08:37:05;;;;;;;4.80;1.80;;;29.90;70.70;;;;;;5037137;28;20230;-81
2022/08/11 08:39:33;;;;;;;8.02;1.85;;;29.80;70.80;;;;;;5038049;28;20260;-83
2022/08/11 08:42:01;;;;;;;3.85;2.10;;;30.40;71.00;;;;;;5038082;28;20645;-84
2022/08/11 08:44:29;;;;;;;13.13;2.65;;;30.40;71.40;;;;;;5038548;28;20201;-83
2022/08/11 08:46:57;;;;;;;4.47;1.98;;;31.10;72.00;;;;;;5038746;28;20221;-83
2022/08/11 08:49:31;;;;;;;3.80;1.80;;;30.50;70.70;;;;;;5039342;28;20177;-84
2022/08/11 08:52:01;;;;;;;4.97;2.08;;;31.00;71.10;;;;;;5037997;28;20176;-81
2022/08/11 08:54:35;;;;;;;5.18;2.15;;;30.60;69.20;;;;;;5059219;28;20204;-83
2022/08/11 08:57:04;;;;;;;6.57;2.22;;;30.60;69.40;;;;;;5043324;28;20173;-84
2022/08/11 08:59:31;;;;;;;9.73;2.80;;;30.50;69.20;;;;;;5050305;28;20202;-84
2022/08/11 09:02:01;;;;;;;3.60;2.17;;;30.30;69.90;;;;;;5052768;28;20201;-85
2022/08/11 09:04:28;;;;;;;9.80;2.22;;;30.40;69.30;;;;;;5049586;28;20165;-84
2022/08/11 09:06:57;;;;;;;4.32;2.20;;;30.60;70.30;;;;;;5048108;28;20177;-83
2022/08/11 09:09:24;;;;;;;4.53;2.05;;;31.20;69.80;;;;;;5045568;28;20284;-83
2022/08/11 09:11:53;;;;;;;4.10;1.95;;;31.10;68.70;;;;;;5043242;28;20219;-81
2022/08/11 09:14:23;;;;;;;7.00;2.42;;;30.70;68.10;;;;;;5044434;28;20173;-83
2022/08/11 09:16:50;;;;;;;6.70;2.38;;;30.70;68.20;;;;;;5044402;28;20161;-83
2022/08/11 09:19:19;;;;;;;8.40;2.58;;;31.20;69.10;;;;;;5041611;28;20295;-83
2022/08/11 09:26:58;;;;;;;5.00;2.15;;;31.10;68.60;;;;;;5043762;28;20532;-84
2022/08/11 09:27:23;;;;;;;24.02;3.13;;;31.60;68.70;;;;;;5065535;28;20533;-84
2022/08/11 09:29:50;;;;;;;5.72;2.42;;;31.80;68.20;;;;;;5049824;28;20173;-84
2022/08/11 09:32:20;;;;;;;14.02;2.60;;;31.40;66.50;;;;;;5045836;28;20959;-83
2022/08/11 09:34:49;;;;;;;5.88;2.30;;;31.40;67.80;;;;;;5053132;28;20288;-82
2022/08/11 09:45:31;;;;;;;3.10;2.75;;;31.90;65.20;;;;;;5067680;28;20199;-82
2022/08/11 09:47:58;;;;;;;7.57;2.70;;;31.80;64.10;;;;;;5048695;28;20652;-82
2022/08/11 09:50:24;;;;;;;5.75;2.42;;;31.80;64.20;;;;;;5048102;28;20181;-82
2022/08/11 09:52:50;;;;;;;6.43;2.63;;;31.90;64.20;;;;;;5046499;28;20177;-82
2022/08/11 09:55:17;;;;;;;13.75;2.92;;;31.60;63.40;;;;;;5047243;28;20193;-83
2022/08/11 10:00:36;;;;;;;4.78;2.20;;;32.10;62.90;;;;;;5066802;28;20165;-83
2022/08/11 10:03:06;;;;;;;11.38;2.72;;;31.40;64.40;;;;;;5048985;28;20177;-82
2022/08/11 10:08:19;;;;;;;3.58;2.40;;;31.90;63.70;;;;;;5068838;28;20176;-84
2022/08/11 10:10:46;;;;;;;4.28;2.67;;;32.00;63.30;;;;;;5046437;28;20176;-82
2022/08/11 10:13:21;;;;;;;4.05;2.17;;;31.30;62.70;;;;;;5046821;28;20482;-81
2022/08/11 10:15:48;;;;;;;7.93;2.30;;;32.60;63.40;;;;;;5046681;28;20276;-83
2022/08/11 10:18:41;;;;;;;3.60;2.47;;;33.50;62.30;;;;;;5047582;28;20208;-82
2022/08/11 10:21:27;;;;;;;5.80;2.30;;;33.90;62.00;;;;;;5046350;28;20169;-82
2022/08/11 10:34:49;;;;;;;6.60;2.30;;;32.20;61.80;;;;;;5064015;28;20258;-82
2022/08/11 10:37:16;;;;;;;3.15;2.30;;;32.40;62.00;;;;;;5044110;28;20637;-81
2022/08/11 10:39:43;;;;;;;5.65;2.22;;;32.10;63.70;;;;;;5042815;28;20689;-80
2022/08/11 10:44:57;;;;;;;5.10;2.40;;;32.00;63.90;;;;;;5057750;28;20270;-80
2022/08/11 10:47:36;;;;;;;13.98;2.50;;;31.90;61.50;;;;;;5040560;28;20173;-80
2022/08/11 11:01:08;;;;;;;12.32;2.80;;;32.80;61.00;;;;;;5059193;28;20651;-82
2022/08/11 11:03:35;;;;;;;11.07;2.60;;;33.20;62.50;;;;;;5041694;28;20181;-81
2022/08/11 11:06:32;;;;;;;5.10;2.47;;;34.00;60.70;;;;;;5041068;28;20759;-81
2022/08/11 11:09:24;;;;;;;9.68;2.97;;;35.40;58.40;;;;;;5040529;28;20294;-81
2022/08/11 11:17:56;;;;;;;20.85;2.72;;;33.90;60.00;;;;;;5058927;28;20665;-81
2022/08/11 11:20:29;;;;;;;14.95;2.45;;;33.40;62.60;;;;;;5040513;28;20268;-81
2022/08/11 11:23:00;;;;;;;14.40;3.45;;;33.40;60.90;;;;;;5037772;28;20258;-80
2022/08/11 11:25:32;;;;;;;3.97;2.40;;;32.90;61.40;;;;;;5056062;28;20204;-81
2022/08/11 11:28:37;;;;;;;4.18;2.55;;;33.50;59.70;;;;;;5038278;28;20212;-81
2022/08/11 11:31:25;;;;;;;9.02;2.10;;;33.10;60.40;;;;;;5037940;28;20272;-81
2022/08/11 11:34:18;;;;;;;7.40;2.30;;;32.90;59.10;;;;;;5037363;28;20207;-81
2022/08/11 11:36:55;;;;;;;3.95;2.42;;;32.70;59.70;;;;;;5037763;28;20248;-80
2022/08/11 11:39:24;;;;;;;7.20;2.47;;;33.70;59.40;;;;;;5037890;28;20197;-81
2022/08/11 11:41:53;;;;;;;2.67;2.30;;;33.80;59.60;;;;;;5055183;28;20752;-80
2022/08/11 11:44:21;;;;;;;5.95;2.30;;;33.60;59.60;;;;;;5038159;28;20260;-81
2022/08/11 11:46:48;;;;;;;3.25;2.30;;;33.30;58.50;;;;;;5038676;28;20583;-80
2022/08/11 11:49:17;;;;;;;7.80;2.70;;;34.10;57.20;;;;;;5037179;28;20560;-81
2022/08/11 11:51:45;;;;;;;10.95;2.35;;;34.60;57.60;;;;;;5035971;28;20176;-80
2022/08/11 11:54:16;;;;;;;4.53;2.00;;;34.10;56.80;;;;;;5036457;28;20185;-80
2022/08/11 11:56:44;;;;;;;6.13;2.45;;;34.10;59.50;;;;;;5036705;28;20276;-80
2022/08/11 12:01:56;;;;;;;9.88;2.90;;;33.10;58.40;;;;;;5054731;28;20248;-80
2022/08/11 12:04:23;;;;;;;5.85;2.22;;;33.40;58.00;;;;;;5036334;28;20173;-80
2022/08/11 12:08:08;;;;;;;3.50;2.50;;;33.70;59.60;;;;;;5036697;28;20165;-81
2022/08/11 12:09:36;;;;;;;4.18;2.20;;;32.90;59.50;;;;;;5053971;28;20174;-81
2022/08/11 12:14:46;;;;;;;9.50;2.50;;;32.60;58.00;;;;;;5053921;28;20284;-80
2022/08/11 12:17:12;;;;;;;10.18;2.50;;;32.30;58.60;;;;;;5036321;28;20276;-81
2022/08/11 12:19:38;;;;;;;4.95;2.33;;;32.40;59.50;;;;;;5035812;28;20201;-80
2022/08/11 12:27:33;;;;;;;5.80;2.45;;;33.10;59.40;;;;;;5056624;28;20176;-81
2022/08/11 12:30:07;;;;;;;2.67;2.00;;;32.50;59.00;;;;;;5037660;28;20182;-80
2022/08/11 12:32:36;;;;;;;2.88;2.15;;;32.70;58.40;;;;;;5038991;28;20251;-81
2022/08/11 12:35:03;;;;;;;8.95;2.60;;;33.20;59.30;;;;;;5037788;28;20193;-80
2022/08/11 12:37:39;;;;;;;5.45;2.20;;;33.20;58.80;;;;;;5038422;28;20173;-81
2022/08/11 12:45:46;;;;;;;7.32;2.72;;;31.80;59.00;;;;;;5055502;28;20223;-80
2022/08/11 12:54:25;;;;;;;8.00;2.78;;;31.60;60.10;;;;;;5055853;28;20179;-84
2022/08/11 13:05:33;;;;;;;3.28;2.28;;;31.50;60.00;;;;;;5059466;28;20227;-81
2022/08/11 13:08:03;;;;;;;8.30;2.80;;;31.60;60.00;;;;;;5041372;28;20173;-81
2022/08/11 13:13:17;;;;;;;7.03;2.50;;;31.10;61.20;;;;;;5059551;28;20280;-81
2022/08/11 13:15:44;;;;;;;4.43;2.13;;;31.10;59.80;;;;;;5038460;28;20201;-81
2022/08/11 13:18:20;;;;;;;4.50;2.30;;;31.20;60.20;;;;;;5038998;28;20264;-81
2022/08/11 13:20:47;;;;;;;4.50;2.30;;;31.20;59.90;;;;;;5038146;28;20200;-81
2022/08/11 13:23:14;;;;;;;2.28;2.10;;;31.50;59.00;;;;;;5034408;28;20204;-81
2022/08/11 13:25:40;;;;;;;6.03;2.60;;;31.50;59.60;;;;;;5034100;28;20208;-81
2022/08/11 13:28:06;;;;;;;6.22;2.10;;;31.50;60.00;;;;;;5034236;28;20174;-80
2022/08/11 13:33:18;;;;;;;13.15;2.30;;;31.10;60.70;;;;;;5052191;28;20180;-80
2022/08/11 13:35:50;;;;;;;8.23;2.47;;;31.00;62.70;;;;;;5033929;28;20197;-81
2022/08/11 13:38:18;;;;;;;3.50;2.08;;;31.00;61.10;;;;;;5033965;28;20258;-80
2022/08/11 13:40:45;;;;;;;6.80;2.13;;;30.90;58.80;;;;;;5052083;28;20180;-80
2022/08/11 13:43:13;;;;;;;4.88;2.10;;;30.60;59.80;;;;;;5034277;28;20192;-81
2022/08/11 13:45:39;;;;;;;9.32;2.25;;;30.70;61.60;;;;;;5052855;28;20554;-82
2022/08/11 13:48:11;;;;;;;6.20;2.45;;;30.50;59.40;;;;;;5034623;28;20173;-82
2022/08/11 13:53:24;;;;;;;2.35;2.17;;;30.70;61.30;;;;;;5052457;28;20218;-82
2022/08/11 13:55:50;;;;;;;4.47;2.42;;;30.90;59.90;;;;;;5034222;28;20258;-83
2022/08/11 13:58:16;;;;;;;8.40;2.40;;;30.70;60.10;;;;;;5034909;28;20201;-83
2022/08/11 14:00:47;;;;;;;10.65;2.58;;;30.80;60.70;;;;;;5034208;28;20223;-82
2022/08/11 14:03:13;;;;;;;5.00;2.28;;;30.70;60.40;;;;;;5033766;28;20679;-83
2022/08/11 14:05:45;;;;;;;11.95;2.60;;;30.70;60.40;;;;;;5034328;28;20221;-82
2022/08/11 14:08:16;;;;;;;8.90;2.78;;;30.90;62.50;;;;;;5034220;28;20242;-83
2022/08/11 14:13:36;;;;;;;23.60;3.70;;;30.90;60.90;;;;;;5033914;28;20675;-81
2022/08/11 14:13:38;;;;;;;6.07;2.35;;;30.90;61.40;;;;;;5052957;28;20264;-82
2022/08/11 14:16:14;;;;;;;6.70;2.50;;;30.60;63.20;;;;;;5037077;28;20229;-83
2022/08/11 14:18:44;;;;;;;2.40;2.20;;;30.60;61.40;;;;;;5055983;28;20181;-83
2022/08/11 14:23:59;;;;;;;5.63;2.70;;;30.60;61.20;;;;;;5058517;28;20180;-83
2022/08/11 14:26:26;;;;;;;17.05;2.97;;;30.20;61.00;;;;;;5040570;28;20665;-83
2022/08/11 14:29:07;;;;;;;5.47;2.53;;;30.40;62.00;;;;;;5040176;28;20695;-83
2022/08/11 14:31:42;;;;;;;3.45;2.58;;;30.10;63.20;;;;;;5039604;28;20219;-84
2022/08/11 14:34:11;;;;;;;4.05;2.58;;;30.30;61.00;;;;;;5039558;28;20179;-83
2022/08/11 14:36:43;;;;;;;2.63;2.42;;;30.40;62.00;;;;;;5039019;28;20562;-83
2022/08/11 14:39:12;;;;;;;4.82;2.47;;;30.40;61.30;;;;;;5039069;28;20201;-83
2022/08/11 14:47:16;;;;;;;13.10;2.90;;;30.40;60.70;;;;;;5058904;28;20245;-82
2022/08/11 14:49:42;;;;;;;4.22;2.22;;;30.40;62.10;;;;;;5040420;28;20633;-82
2022/08/11 14:52:14;;;;;;;5.07;2.65;;;30.40;61.00;;;;;;5039701;28;20177;-83
2022/08/11 14:57:30;;;;;;;7.25;2.70;;;30.40;62.30;;;;;;5058575;28;20164;-83
2022/08/11 14:59:59;;;;;;;3.30;2.55;;;30.50;61.30;;;;;;5041448;28;20201;-85
2022/08/11 15:05:10;;;;;;;6.20;2.42;;;30.20;60.70;;;;;;5058034;28;20196;-83
2022/08/11 15:07:36;;;;;;;8.50;2.40;;;30.20;61.20;;;;;;5039436;28;20162;-83
2022/08/11 15:10:06;;;;;;;6.18;2.83;;;30.20;60.90;;;;;;5039798;28;20169;-83
2022/08/11 15:12:33;;;;;;;11.13;3.00;;;30.30;60.20;;;;;;5039683;28;20261;-84
2022/08/11 15:17:49;;;;;;;4.40;2.30;;;30.40;61.90;;;;;;5057785;28;20188;-83
2022/08/11 15:26:00;;;;;;;5.60;2.90;;;30.20;61.50;;;;;;5057813;28;20220;-83
2022/08/11 15:39:34;;;;;;;24.80;3.42;;;30.20;59.40;;;;;;5056673;28;20204;-83
2022/08/11 15:47:56;;;;;;;7.22;2.47;;;30.20;60.60;;;;;;5057008;28;20226;-82
2022/08/11 15:50:29;;;;;;;9.25;2.28;;;30.10;61.30;;;;;;5038936;28;20634;-81
2022/08/11 15:53:10;;;;;;;5.90;2.55;;;30.10;61.30;;;;;;5039101;28;20180;-82
2022/08/11 15:55:38;;;;;;;2.53;2.33;;;30.00;61.70;;;;;;5038758;28;20201;-81
2022/08/11 16:06:53;;;;;;;8.82;2.40;;;29.80;63.30;;;;;;5056873;28;20606;-82
2022/08/11 16:09:39;;;;;;;6.15;2.20;;;29.80;63.40;;;;;;5038501;28;20180;-80
2022/08/11 16:12:08;;;;;;;5.88;2.20;;;29.80;62.30;;;;;;5023861;28;20208;-80
2022/08/11 16:17:26;;;;;;;4.88;2.30;;;29.80;62.50;;;;;;5057579;28;20744;-81
2022/08/11 16:19:55;;;;;;;8.38;2.58;;;29.80;63.20;;;;;;5038417;28;20201;-81
2022/08/11 16:22:26;;;;;;;5.40;2.47;;;29.70;62.30;;;;;;5038374;28;20169;-81
2022/08/11 16:24:55;;;;;;;3.47;2.20;;;29.70;62.20;;;;;;5039101;28;20672;-81
2022/08/11 16:27:21;;;;;;;18.25;2.75;;;29.70;62.50;;;;;;5039136;28;20169;-79
2022/08/11 16:29:50;;;;;;;4.18;2.22;;;29.70;63.10;;;;;;5038303;28;20177;-79
2022/08/11 16:32:20;;;;;;;29.73;2.78;;;29.70;62.70;;;;;;5038365;28;20780;-81
2022/08/11 16:40:42;;;;;;;4.10;2.25;;;29.70;62.10;;;;;;5054006;28;20582;-80
2022/08/11 16:48:46;;;;;;;5.07;2.13;;;29.50;62.50;;;;;;5054104;28;20264;-84
2022/08/11 16:51:13;;;;;;;26.58;3.10;;;29.50;62.20;;;;;;5035560;28;20177;-84
2022/08/11 16:53:43;;;;;;;6.10;2.50;;;29.50;62.90;;;;;;5036267;28;20174;-83
2022/08/11 16:56:13;;;;;;;2.65;1.90;;;29.40;62.30;;;;;;5036102;28;20200;-83
2022/08/11 17:01:26;;;;;;;2.78;2.00;;;29.30;63.60;;;;;;5053705;28;20758;-82
2022/08/11 17:18:38;;;;;;;5.10;2.35;;;29.30;62.80;;;;;;5054774;28;20212;-84
2022/08/11 17:21:02;;;;;;;9.43;2.10;;;29.20;63.80;;;;;;5057507;28;20250;-85
2022/08/11 17:29:32;;;;;;;30.70;3.38;;;29.10;63.10;;;;;;5056579;28;20164;-84
2022/08/11 17:37:33;;;;;;;7.57;2.50;;;29.10;64.20;;;;;;5055636;28;20161;-86
2022/08/11 17:40:02;;;;;;;5.35;2.25;;;29.00;62.90;;;;;;5036238;28;20244;-83
2022/08/11 17:50:49;;;;;;;15.60;2.90;;;28.80;65.00;;;;;;5063971;28;20180;-83
2022/08/11 18:01:35;;;;;;;7.38;1.98;;;28.60;64.70;;;;;;5061044;28;20173;-85
2022/08/11 18:04:05;;;;;;;2.22;2.05;;;28.50;64.80;;;;;;5040156;28;20181;-84
2022/08/11 18:06:33;;;;;;;7.35;2.20;;;28.40;64.70;;;;;;5041047;28;20304;-83
